createdAt,value
2018-07-13T00:00:01.984Z,6.33
2018-07-13T00:02:30.445Z,6.90
2018-07-13T00:04:58.945Z,6.50
2018-07-13T00:07:27.413Z,6.20
2018-07-13T00:09:55.962Z,6.77
2018-07-13T00:12:24.510Z,6.37
2018-07-13T00:15:06.172Z,6.60
2018-07-13T00:17:34.732Z,6.73
2018-07-13T00:20:03.327Z,6.93
2018-07-13T00:22:31.818Z,7.60
2018-07-13T00:25:00.444Z,6.50
2018-07-13T00:27:28.944Z,6.83
2018-07-13T00:29:57.556Z,7.60
2018-07-13T00:32:26.087Z,7.03
2018-07-13T00:34:54.586Z,7.80
2018-07-13T00:37:23.069Z,7.30
2018-07-13T00:39:51.626Z,7.23
2018-07-13T00:42:20.941Z,7.13
2018-07-13T00:44:49.434Z,7.90
2018-07-13T00:47:17.912Z,7.77
2018-07-13T00:49:46.428Z,8.13
2018-07-13T00:52:14.966Z,7.90
2018-07-13T00:54:43.547Z,8.37
2018-07-13T00:57:12.070Z,8.27
2018-07-13T00:59:40.614Z,8.13
2018-07-13T01:02:09.157Z,8.73
2018-07-13T01:04:37.622Z,7.70
2018-07-13T01:07:06.401Z,8.40
2018-07-13T01:09:34.902Z,8.80
2018-07-13T01:12:03.448Z,9.10
2018-07-13T01:14:31.962Z,8.90
2018-07-13T01:17:00.625Z,8.90
2018-07-13T01:19:29.166Z,9.63
2018-07-13T01:21:57.684Z,10.63
2018-07-13T01:24:26.218Z,11.47
2018-07-13T01:26:54.709Z,11.17
2018-07-13T01:29:23.262Z,12.03
2018-07-13T01:31:51.770Z,12.00
2018-07-13T01:34:20.293Z,11.57
2018-07-13T01:36:48.838Z,12.50
2018-07-13T01:39:17.944Z,11.93
2018-07-13T01:41:46.442Z,12.40
2018-07-13T01:44:14.949Z,13.63
2018-07-13T01:46:43.137Z,13.43
2018-07-13T01:49:11.673Z,12.87
2018-07-13T01:51:40.173Z,12.00
2018-07-13T01:54:09.211Z,12.30
2018-07-13T01:56:37.778Z,12.77
2018-07-13T01:59:06.475Z,13.37
2018-07-13T02:01:35.062Z,12.27
2018-07-13T02:04:03.669Z,12.60
2018-07-13T02:06:32.170Z,11.90
2018-07-13T02:09:00.719Z,12.27
2018-07-13T02:11:29.252Z,12.27
2018-07-13T02:13:57.795Z,12.23
2018-07-13T02:16:26.337Z,12.30
2018-07-13T02:18:54.825Z,12.40
2018-07-13T02:21:23.356Z,12.90
2018-07-13T02:23:51.890Z,13.00
2018-07-13T02:26:20.504Z,12.93
2018-07-13T02:28:49.094Z,13.60
2018-07-13T02:31:17.686Z,12.03
2018-07-13T02:33:46.247Z,12.47
2018-07-13T02:36:14.795Z,12.73
2018-07-13T02:38:43.298Z,12.80
2018-07-13T02:41:11.826Z,12.40
2018-07-13T02:43:40.385Z,13.17
2018-07-13T02:46:08.943Z,12.43
2018-07-13T02:48:37.413Z,12.90
2018-07-13T02:51:05.949Z,13.00
2018-07-13T02:53:34.481Z,13.23
2018-07-13T02:56:03.021Z,12.67
2018-07-13T02:58:31.543Z,13.63
2018-07-13T03:01:00.073Z,13.67
2018-07-13T03:03:28.628Z,14.23
2018-07-13T03:05:57.135Z,14.97
2018-07-13T03:08:25.638Z,13.63
2018-07-13T03:10:54.118Z,14.40
2018-07-13T03:13:22.642Z,14.23
2018-07-13T03:15:51.152Z,14.43
2018-07-13T03:18:19.713Z,14.07
2018-07-13T03:20:47.893Z,14.00
2018-07-13T03:23:16.091Z,14.27
2018-07-13T03:25:44.656Z,14.90
2018-07-13T03:28:13.243Z,15.17
2018-07-13T03:30:41.831Z,14.43
2018-07-13T03:33:10.338Z,14.40
2018-07-13T03:35:38.867Z,13.90
2018-07-13T03:38:07.377Z,12.73
2018-07-13T03:40:35.900Z,12.17
2018-07-13T03:43:04.519Z,12.77
2018-07-13T03:45:33.113Z,12.00
2018-07-13T03:48:01.617Z,10.23
2018-07-13T03:50:30.270Z,10.63
2018-07-13T03:52:58.839Z,9.90
2018-07-13T03:55:27.364Z,10.00
2018-07-13T03:57:55.894Z,9.93
2018-07-13T04:00:24.590Z,10.27
2018-07-13T04:02:53.089Z,9.40
2018-07-13T04:05:21.642Z,9.93
2018-07-13T04:07:50.327Z,9.33
2018-07-13T04:10:19.848Z,9.80
2018-07-13T04:12:48.326Z,11.63
2018-07-13T04:15:16.889Z,10.37
2018-07-13T04:17:45.463Z,11.40
2018-07-13T04:20:13.947Z,11.57
2018-07-13T04:22:42.502Z,9.97
2018-07-13T04:25:11.293Z,11.00
2018-07-13T04:27:39.533Z,10.00
2018-07-13T04:30:08.282Z,11.07
2018-07-13T04:32:36.849Z,11.07
2018-07-13T04:35:05.430Z,9.77
2018-07-13T04:37:34.006Z,9.77
2018-07-13T04:40:02.623Z,10.03
2018-07-13T04:42:31.159Z,9.90
2018-07-13T04:44:59.658Z,9.80
2018-07-13T04:47:28.371Z,8.93
2018-07-13T04:49:56.969Z,9.37
2018-07-13T04:52:25.702Z,7.87
2018-07-13T04:54:54.274Z,8.03
2018-07-13T04:57:22.812Z,7.27
2018-07-13T04:59:51.365Z,7.73
2018-07-13T05:02:20.390Z,6.10
2018-07-13T05:04:48.937Z,6.83
2018-07-13T05:07:17.569Z,6.30
2018-07-13T05:09:46.140Z,6.03
2018-07-13T05:12:15.028Z,6.20
2018-07-13T05:14:43.630Z,6.10
2018-07-13T05:17:12.509Z,6.53
2018-07-13T05:19:41.096Z,7.00
2018-07-13T05:22:09.766Z,6.90
2018-07-13T05:24:39.466Z,8.30
2018-07-13T05:27:08.132Z,7.90
2018-07-13T05:29:36.709Z,8.60
2018-07-13T05:32:05.286Z,8.87
2018-07-13T05:34:33.892Z,9.17
2018-07-13T05:37:03.101Z,10.40
2018-07-13T05:39:31.693Z,11.40
2018-07-13T05:42:00.305Z,11.33
2018-07-13T05:44:28.893Z,12.53
2018-07-13T05:46:57.496Z,14.03
2018-07-13T05:49:26.098Z,13.00
2018-07-13T05:51:54.855Z,13.80
2018-07-13T05:54:23.556Z,13.97
2018-07-13T05:56:52.251Z,14.20
2018-07-13T05:59:20.904Z,14.40
2018-07-13T06:01:49.588Z,13.63
2018-07-13T06:04:18.280Z,15.70
2018-07-13T06:06:47.269Z,15.70
2018-07-13T06:09:16.351Z,15.77
2018-07-13T06:11:45.168Z,15.73
2018-07-13T06:14:14.215Z,16.27
2018-07-13T06:16:43.392Z,16.57
2018-07-13T06:19:12.069Z,16.37
2018-07-13T06:21:40.652Z,16.70
2018-07-13T06:24:09.297Z,16.80
2018-07-13T06:26:37.889Z,16.47
2018-07-13T06:29:06.576Z,15.83
2018-07-13T06:31:35.248Z,16.13
2018-07-13T06:34:03.954Z,15.83
2018-07-13T06:36:32.579Z,15.97
2018-07-13T06:39:01.247Z,14.83
2018-07-13T06:41:29.980Z,15.37
2018-07-13T06:43:58.647Z,14.47
2018-07-13T06:46:27.324Z,16.40
2018-07-13T06:48:56.580Z,16.33
2018-07-13T06:51:25.690Z,16.10
2018-07-13T06:53:54.399Z,16.20
2018-07-13T06:56:23.333Z,17.27
2018-07-13T06:58:58.922Z,19.17
2018-07-13T07:01:27.596Z,18.40
2018-07-13T07:04:36.855Z,17.97
2018-07-13T07:07:15.315Z,18.93
2018-07-13T07:09:46.660Z,18.27
2018-07-13T07:13:24.832Z,18.80
2018-07-13T07:15:53.567Z,18.53
2018-07-13T07:18:22.201Z,21.53
2018-07-13T07:20:50.957Z,20.37
2018-07-13T07:23:19.596Z,19.93
2018-07-13T07:25:48.206Z,20.23
2018-07-13T07:28:16.748Z,17.67
2018-07-13T07:30:45.300Z,17.10
2018-07-13T07:33:14.323Z,18.57
2018-07-13T07:35:42.881Z,17.97
2018-07-13T07:38:11.418Z,15.47
2018-07-13T07:40:40.015Z,16.00
2018-07-13T07:43:08.513Z,15.53
2018-07-13T07:45:37.082Z,17.70
2018-07-13T07:48:05.678Z,15.30
2018-07-13T07:50:34.293Z,14.07
2018-07-13T07:53:02.809Z,13.93
2018-07-13T07:55:31.333Z,14.77
2018-07-13T07:57:59.943Z,16.47
2018-07-13T08:00:28.490Z,15.80
2018-07-13T08:02:57.122Z,16.13
2018-07-13T08:05:25.813Z,13.87
2018-07-13T08:07:54.348Z,10.23
2018-07-13T08:10:22.905Z,11.40
2018-07-13T08:12:51.570Z,11.80
2018-07-13T08:15:20.170Z,11.97
2018-07-13T08:17:48.738Z,10.47
2018-07-13T08:20:22.169Z,9.47
2018-07-13T08:22:55.444Z,9.70
2018-07-13T08:25:24.707Z,8.03
2018-07-13T08:27:54.834Z,8.20
2018-07-13T08:30:55.980Z,8.40
2018-07-13T08:33:24.693Z,7.83
2018-07-13T08:35:53.231Z,7.17
2018-07-13T08:38:21.978Z,6.50
2018-07-13T08:40:50.639Z,7.23
2018-07-13T08:43:19.374Z,6.43
2018-07-13T08:45:48.076Z,6.70
2018-07-13T08:48:16.840Z,6.40
2018-07-13T08:50:45.346Z,5.43
2018-07-13T08:53:13.985Z,5.30
2018-07-13T08:55:42.598Z,5.13
2018-07-13T08:58:11.451Z,5.50
2018-07-13T09:00:40.165Z,5.57
2018-07-13T09:03:08.731Z,5.10
2018-07-13T09:05:37.332Z,5.13
2018-07-13T09:08:05.894Z,4.30
2018-07-13T09:10:34.468Z,4.87
2018-07-13T09:13:03.088Z,5.20
2018-07-13T09:15:31.647Z,3.77
2018-07-13T09:18:00.200Z,3.30
2018-07-13T09:20:28.790Z,3.77
2018-07-13T09:22:57.338Z,4.53
2018-07-13T09:25:25.534Z,4.07
2018-07-13T09:27:54.239Z,5.00
2018-07-13T09:30:22.877Z,4.53
2018-07-13T09:32:51.486Z,5.20
2018-07-13T09:35:20.078Z,5.07
2018-07-13T09:37:49.303Z,5.20
2018-07-13T09:40:17.837Z,4.10
2018-07-13T09:42:46.011Z,4.10
2018-07-13T09:45:14.627Z,4.00
2018-07-13T09:47:43.512Z,4.47
2018-07-13T09:50:12.073Z,4.03
2018-07-13T09:52:41.719Z,4.30
2018-07-13T09:55:10.300Z,4.40
2018-07-13T09:57:38.813Z,3.57
2018-07-13T10:00:08.449Z,3.73
2018-07-13T10:02:37.046Z,3.40
2018-07-13T10:05:05.645Z,3.50
2018-07-13T10:07:34.230Z,2.93
2018-07-13T10:10:02.783Z,3.00
2018-07-13T10:12:31.294Z,2.50
2018-07-13T10:15:00.072Z,3.13
2018-07-13T10:17:28.808Z,3.20
2018-07-13T10:19:57.443Z,3.80
2018-07-13T10:22:27.851Z,3.63
2018-07-13T10:24:59.175Z,3.50
2018-07-13T10:27:30.765Z,2.50
2018-07-13T10:30:00.613Z,2.67
2018-07-13T10:32:29.278Z,2.70
2018-07-13T10:34:57.857Z,2.73
2018-07-13T10:37:26.197Z,2.43
2018-07-13T10:39:54.738Z,2.60
2018-07-13T10:42:23.355Z,2.90
2018-07-13T10:44:52.012Z,2.90
2018-07-13T10:47:20.551Z,2.70
2018-07-13T10:49:49.223Z,3.00
2018-07-13T10:52:17.837Z,2.67
2018-07-13T10:54:46.525Z,2.67
2018-07-13T10:57:15.083Z,2.00
2018-07-13T10:59:43.605Z,2.73
2018-07-13T11:02:12.292Z,2.77
2018-07-13T11:04:40.806Z,2.50
2018-07-13T11:07:09.310Z,2.87
2018-07-13T11:09:37.910Z,2.70
2018-07-13T11:12:06.462Z,2.80
2018-07-13T11:14:35.039Z,3.07
2018-07-13T11:17:03.577Z,3.30
2018-07-13T11:19:32.101Z,3.13
2018-07-13T11:22:00.698Z,3.20
2018-07-13T11:24:29.340Z,3.73
2018-07-13T11:26:57.942Z,3.70
2018-07-13T11:29:26.438Z,3.67
2018-07-13T11:31:55.226Z,3.57
2018-07-13T11:34:23.972Z,3.90
2018-07-13T11:36:52.578Z,3.67
2018-07-13T11:39:21.049Z,3.63
2018-07-13T11:41:49.663Z,3.80
2018-07-13T11:44:18.263Z,4.00
2018-07-13T11:46:46.697Z,3.87
2018-07-13T11:49:14.873Z,3.80
2018-07-13T11:51:43.040Z,3.63
2018-07-13T11:54:11.570Z,3.63
2018-07-13T11:56:40.081Z,3.47
2018-07-13T11:59:08.617Z,4.00
2018-07-13T12:01:37.174Z,4.03
2018-07-13T12:04:05.716Z,3.70
2018-07-13T12:06:34.189Z,3.67
2018-07-13T12:09:02.825Z,3.33
2018-07-13T12:11:31.548Z,3.13
2018-07-13T12:14:00.079Z,3.83
2018-07-13T12:16:28.677Z,3.33
2018-07-13T12:18:57.198Z,3.70
2018-07-13T12:21:25.776Z,3.47
2018-07-13T12:23:54.324Z,3.43
2018-07-13T12:26:22.767Z,3.40
2018-07-13T12:28:51.313Z,3.17
2018-07-13T12:31:19.865Z,3.50
2018-07-13T12:33:48.415Z,3.50
2018-07-13T12:36:16.942Z,3.70
2018-07-13T12:38:45.449Z,3.50
2018-07-13T12:41:13.957Z,3.70
2018-07-13T12:43:42.538Z,3.80
2018-07-13T12:46:11.128Z,3.67
2018-07-13T12:48:39.696Z,4.00
2018-07-13T12:51:08.261Z,3.77
2018-07-13T12:53:36.717Z,3.77
2018-07-13T12:56:05.362Z,3.53
2018-07-13T12:58:33.906Z,3.70
2018-07-13T13:01:02.418Z,3.57
2018-07-13T13:03:30.986Z,3.60
2018-07-13T13:05:59.636Z,3.27
2018-07-13T13:08:28.150Z,3.17
2018-07-13T13:10:56.333Z,3.30
2018-07-13T13:13:24.830Z,3.00
2018-07-13T13:15:53.005Z,2.97
2018-07-13T13:18:21.485Z,3.00
2018-07-13T13:20:49.970Z,3.10
2018-07-13T13:23:18.561Z,2.70
2018-07-13T13:25:47.098Z,2.60
2018-07-13T13:28:15.661Z,3.00
2018-07-13T13:30:44.196Z,3.00
2018-07-13T13:33:12.730Z,2.60
2018-07-13T13:35:41.310Z,3.10
2018-07-13T13:38:09.408Z,2.83
2018-07-13T13:40:37.938Z,2.67
2018-07-13T13:43:06.474Z,2.60
2018-07-13T13:45:35.554Z,2.90
2018-07-13T13:48:04.084Z,2.70
2018-07-13T13:50:32.632Z,2.87
2018-07-13T13:53:01.119Z,2.50
2018-07-13T13:55:29.309Z,2.60
2018-07-13T13:57:57.942Z,2.50
2018-07-13T14:00:26.531Z,2.10
2018-07-13T14:02:55.163Z,2.60
2018-07-13T14:05:24.111Z,2.60
2018-07-13T14:07:52.695Z,2.40
2018-07-13T14:10:21.399Z,2.30
2018-07-13T14:12:50.071Z,2.43
2018-07-13T14:15:18.752Z,2.33
2018-07-13T14:17:47.386Z,2.30
2018-07-13T14:20:15.992Z,2.40
2018-07-13T14:22:44.566Z,2.30
2018-07-13T14:25:13.254Z,2.50
2018-07-13T14:27:41.860Z,2.63
2018-07-13T14:30:10.567Z,2.80
2018-07-13T14:32:39.123Z,2.97
2018-07-13T14:35:07.739Z,3.10
2018-07-13T14:37:38.542Z,3.07
2018-07-13T14:40:07.144Z,3.30
2018-07-13T14:42:35.814Z,3.33
2018-07-13T14:45:04.467Z,3.00
2018-07-13T14:47:32.714Z,3.20
2018-07-13T14:50:01.389Z,3.00
2018-07-13T14:52:30.045Z,2.90
2018-07-13T14:54:58.664Z,3.33
2018-07-13T14:57:27.285Z,3.33
2018-07-13T14:59:55.938Z,2.60
2018-07-13T15:02:24.581Z,3.10
2018-07-13T15:04:53.192Z,3.03
2018-07-13T15:07:21.791Z,3.20
2018-07-13T15:09:50.450Z,2.70
2018-07-13T15:12:19.064Z,2.80
2018-07-13T15:14:47.675Z,2.90
2018-07-13T15:17:16.383Z,2.73
2018-07-13T15:19:44.966Z,2.40
2018-07-13T15:22:13.506Z,2.67
2018-07-13T15:24:42.044Z,2.50
2018-07-13T15:27:10.597Z,2.03
2018-07-13T15:29:39.241Z,2.23
2018-07-13T15:32:08.003Z,2.50
2018-07-13T15:34:36.526Z,2.30
2018-07-13T15:37:05.079Z,2.40
2018-07-13T15:39:33.621Z,2.53
2018-07-13T15:42:03.721Z,2.60
2018-07-13T15:44:32.298Z,2.57
2018-07-13T15:47:00.769Z,2.50
2018-07-13T15:49:29.321Z,2.60
2018-07-13T15:51:57.856Z,2.47
2018-07-13T15:54:26.335Z,2.60
2018-07-13T15:56:55.482Z,2.37
2018-07-13T15:59:24.059Z,2.40
2018-07-13T16:01:52.698Z,2.50
2018-07-13T16:04:21.305Z,2.53
2018-07-13T16:06:49.859Z,2.60
2018-07-13T16:09:18.604Z,2.53
2018-07-13T16:11:47.158Z,2.47
2018-07-13T16:14:15.858Z,2.40
2018-07-13T16:16:44.711Z,2.43
2018-07-13T16:19:13.434Z,2.60
2018-07-13T16:21:42.004Z,2.30
2018-07-13T16:24:10.585Z,2.30
2018-07-13T16:26:39.336Z,2.50
2018-07-13T16:29:07.920Z,2.50
2018-07-13T16:31:36.469Z,2.80
2018-07-13T16:34:05.016Z,3.03
2018-07-13T16:36:33.450Z,3.43
2018-07-13T16:39:02.273Z,3.57
2018-07-13T16:41:30.778Z,3.20
2018-07-13T16:43:59.266Z,3.50
2018-07-13T16:46:27.465Z,3.50
2018-07-13T16:48:55.931Z,3.40
2018-07-13T16:51:24.446Z,4.13
2018-07-13T16:53:52.946Z,4.03
2018-07-13T16:56:21.565Z,3.97
2018-07-13T16:58:50.313Z,4.17
2018-07-13T17:01:18.815Z,4.20
2018-07-13T17:03:47.343Z,3.93
2018-07-13T17:06:15.818Z,4.70
2018-07-13T17:08:44.548Z,4.63
2018-07-13T17:11:13.378Z,4.50
2018-07-13T17:13:41.955Z,4.13
2018-07-13T17:16:10.471Z,4.20
2018-07-13T17:18:39.014Z,3.87
2018-07-13T17:21:07.618Z,4.27
2018-07-13T17:23:36.849Z,4.57
2018-07-13T17:26:06.225Z,4.07
2018-07-13T17:28:34.877Z,4.20
2018-07-13T17:31:03.434Z,4.30
2018-07-13T17:33:31.987Z,4.90
2018-07-13T17:36:00.846Z,4.60
2018-07-13T17:38:29.413Z,5.23
2018-07-13T17:40:57.953Z,5.00
2018-07-13T17:43:26.473Z,5.50
2018-07-13T17:45:55.726Z,4.73
2018-07-13T17:48:24.981Z,5.30
2018-07-13T17:50:53.522Z,4.80
2018-07-13T17:53:22.149Z,5.00
2018-07-13T17:55:50.658Z,5.33
2018-07-13T17:58:19.178Z,6.20
2018-07-13T18:00:47.975Z,5.80
2018-07-13T18:03:16.990Z,5.13
2018-07-13T18:05:45.513Z,5.43
2018-07-13T18:08:14.036Z,6.77
2018-07-13T18:10:42.535Z,7.13
2018-07-13T18:13:11.146Z,6.83
2018-07-13T18:15:39.745Z,5.63
2018-07-13T18:18:08.507Z,6.70
2018-07-13T18:20:37.044Z,7.07
2018-07-13T18:23:05.790Z,8.40
2018-07-13T18:25:34.406Z,8.47
2018-07-13T18:28:03.044Z,5.53
2018-07-13T18:30:31.634Z,5.37
2018-07-13T18:33:00.182Z,5.73
2018-07-13T18:35:28.840Z,12.43
2018-07-13T18:37:57.457Z,12.00
2018-07-13T18:40:25.983Z,14.50
2018-07-13T18:42:54.505Z,15.37
2018-07-13T18:45:23.236Z,12.80
2018-07-13T18:47:51.986Z,7.20
2018-07-13T18:50:20.474Z,6.80
2018-07-13T18:52:49.055Z,7.07
2018-07-13T18:55:17.816Z,7.00
2018-07-13T18:57:46.389Z,7.83
2018-07-13T19:00:14.990Z,9.87
2018-07-13T19:02:43.980Z,9.83
2018-07-13T19:05:12.730Z,10.13
2018-07-13T19:07:41.417Z,9.30
2018-07-13T19:10:09.918Z,9.03
2018-07-13T19:12:38.484Z,9.50
2018-07-13T19:15:07.117Z,9.60
2018-07-13T19:17:35.758Z,10.90
2018-07-13T19:20:04.374Z,10.40
2018-07-13T19:22:32.850Z,9.33
2018-07-13T19:25:01.414Z,8.87
2018-07-13T19:27:30.076Z,8.80
2018-07-13T19:29:58.734Z,8.97
2018-07-13T19:32:27.218Z,9.40
2018-07-13T19:34:55.742Z,9.30
2018-07-13T19:37:24.440Z,8.97
2018-07-13T19:39:52.967Z,8.20
2018-07-13T19:42:21.216Z,8.17
2018-07-13T19:44:49.763Z,8.23
2018-07-13T19:47:18.351Z,7.33
2018-07-13T19:49:46.919Z,8.63
2018-07-13T19:52:16.058Z,8.97
2018-07-13T19:54:44.837Z,9.17
2018-07-13T19:57:13.373Z,8.57
2018-07-13T19:59:42.233Z,9.43
2018-07-13T20:02:10.773Z,10.13
2018-07-13T20:04:39.253Z,10.43
2018-07-13T20:07:07.829Z,9.67
2018-07-13T20:09:36.348Z,9.63
2018-07-13T20:12:04.984Z,9.27
2018-07-13T20:14:33.497Z,9.77
2018-07-13T20:17:02.159Z,10.13
2018-07-13T20:19:30.746Z,10.33
2018-07-13T20:21:59.434Z,10.43
2018-07-13T20:24:28.110Z,10.83
2018-07-13T20:26:56.733Z,10.73
2018-07-13T20:29:25.341Z,9.50
2018-07-13T20:31:53.944Z,10.47
2018-07-13T20:34:22.568Z,10.20
2018-07-13T20:36:51.351Z,10.57
2018-07-13T20:39:19.945Z,10.67
2018-07-13T20:41:48.405Z,10.10
2018-07-13T20:44:16.945Z,10.77
2018-07-13T20:46:45.417Z,10.47
2018-07-13T20:49:14.018Z,10.27
2018-07-13T20:51:42.534Z,10.17
2018-07-13T20:54:11.078Z,10.67
2018-07-13T20:56:39.588Z,10.87
2018-07-13T20:59:08.189Z,11.17
2018-07-13T21:01:36.765Z,11.20
2018-07-13T21:04:05.323Z,10.03
2018-07-13T21:06:33.853Z,10.87
2018-07-13T21:09:02.384Z,10.90
2018-07-13T21:11:30.945Z,9.93
2018-07-13T21:13:59.480Z,10.50
2018-07-13T21:16:27.957Z,10.63
2018-07-13T21:18:56.933Z,9.77
2018-07-13T21:21:25.409Z,9.83
2018-07-13T21:23:53.921Z,9.23
2018-07-13T21:26:22.473Z,9.33
2018-07-13T21:28:51.033Z,8.80
2018-07-13T21:31:19.540Z,9.80
2018-07-13T21:33:48.017Z,9.80
2018-07-13T21:36:16.614Z,9.73
2018-07-13T21:38:44.844Z,9.67
2018-07-13T21:41:13.336Z,9.73
2018-07-13T21:43:41.900Z,9.83
2018-07-13T21:46:10.404Z,10.07
2018-07-13T21:48:38.913Z,9.90
2018-07-13T21:51:07.583Z,10.37
2018-07-13T21:53:36.106Z,11.77
2018-07-13T21:56:04.697Z,10.93
2018-07-13T21:58:33.270Z,10.63
2018-07-13T22:01:01.467Z,10.63
2018-07-13T22:03:29.949Z,11.13
2018-07-13T22:05:58.494Z,10.53
2018-07-13T22:08:27.006Z,10.60
2018-07-13T22:10:55.504Z,10.07
2018-07-13T22:13:24.042Z,10.50
2018-07-13T22:15:52.607Z,10.43
2018-07-13T22:18:21.120Z,10.67
2018-07-13T22:20:49.621Z,9.17
2018-07-13T22:23:18.118Z,10.73
2018-07-13T22:25:46.600Z,10.70
2018-07-13T22:28:15.148Z,11.33
2018-07-13T22:30:43.654Z,11.37
2018-07-13T22:33:12.177Z,12.77
2018-07-13T22:35:40.685Z,12.83
2018-07-13T22:38:10.202Z,13.90
2018-07-13T22:40:38.690Z,14.50
2018-07-13T22:43:07.126Z,13.80
2018-07-13T22:45:35.642Z,13.50
2018-07-13T22:48:04.183Z,13.13
2018-07-13T22:50:32.646Z,13.20
2018-07-13T22:53:01.153Z,12.60
2018-07-13T22:55:29.732Z,13.23
2018-07-13T22:57:58.260Z,12.50
2018-07-13T23:00:26.740Z,12.93
2018-07-13T23:02:55.286Z,12.73
2018-07-13T23:05:23.857Z,12.77
2018-07-13T23:07:52.312Z,12.33
2018-07-13T23:10:20.841Z,12.30
2018-07-13T23:12:49.395Z,11.87
2018-07-13T23:15:18.110Z,11.50
2018-07-13T23:17:46.633Z,12.83
2018-07-13T23:20:15.086Z,12.90
2018-07-13T23:22:43.613Z,11.83
2018-07-13T23:25:12.099Z,11.90
2018-07-13T23:27:40.638Z,11.67
2018-07-13T23:30:09.345Z,12.10
2018-07-13T23:32:38.061Z,11.17
2018-07-13T23:35:06.536Z,11.93
2018-07-13T23:37:34.990Z,12.60
2018-07-13T23:40:03.494Z,12.30
2018-07-13T23:42:32.025Z,12.77
2018-07-13T23:45:00.537Z,12.80
2018-07-13T23:47:28.997Z,12.50
2018-07-13T23:49:57.502Z,13.67
2018-07-13T23:52:26.034Z,13.03
2018-07-13T23:54:54.561Z,13.40
2018-07-13T23:57:23.110Z,14.03
2018-07-13T23:59:51.268Z,14.63
